createdAt,value
2019-05-26T00:00:11.696Z,4.03
2019-05-26T00:02:41.134Z,5.67
2019-05-26T00:05:09.487Z,4.97
2019-05-26T00:07:37.814Z,7.53
2019-05-26T00:10:08.222Z,4.40
2019-05-26T00:12:36.986Z,4.83
2019-05-26T00:15:08.351Z,5.33
2019-05-26T00:17:36.609Z,5.10
2019-05-26T00:20:06.638Z,4.70
2019-05-26T00:22:34.937Z,4.80
2019-05-26T00:25:03.582Z,4.13
2019-05-26T00:27:31.847Z,4.20
2019-05-26T00:30:00.227Z,4.93
2019-05-26T00:32:28.603Z,4.77
2019-05-26T00:34:56.878Z,4.43
2019-05-26T00:37:25.839Z,5.13
2019-05-26T00:39:54.217Z,4.80
2019-05-26T00:42:22.571Z,5.07
2019-05-26T00:44:50.901Z,4.90
2019-05-26T00:47:19.132Z,4.60
2019-05-26T00:49:47.421Z,4.70
2019-05-26T00:52:15.678Z,5.00
2019-05-26T00:54:43.963Z,5.30
2019-05-26T00:57:12.231Z,10.23
2019-05-26T00:59:40.530Z,8.70
2019-05-26T01:02:08.909Z,16.50
2019-05-26T01:04:37.224Z,5.63
2019-05-26T01:07:05.633Z,5.70
2019-05-26T01:09:33.974Z,4.70
2019-05-26T01:12:04.449Z,5.30
2019-05-26T01:14:32.713Z,4.93
2019-05-26T01:17:01.004Z,5.40
2019-05-26T01:19:29.274Z,4.33
2019-05-26T01:21:57.558Z,6.33
2019-05-26T01:24:25.851Z,5.87
2019-05-26T01:26:54.128Z,5.00
2019-05-26T01:29:22.452Z,5.50
2019-05-26T01:31:50.842Z,4.80
2019-05-26T01:34:21.198Z,5.43
2019-05-26T01:36:49.485Z,4.80
2019-05-26T01:39:17.741Z,5.70
2019-05-26T01:41:46.011Z,5.70
2019-05-26T01:44:14.280Z,5.10
2019-05-26T01:46:42.525Z,5.40
2019-05-26T01:49:10.791Z,4.60
2019-05-26T01:51:39.157Z,4.73
2019-05-26T01:54:07.449Z,5.10
2019-05-26T01:56:35.718Z,4.90
2019-05-26T01:59:05.840Z,5.40
2019-05-26T02:01:34.167Z,5.97
2019-05-26T02:04:02.456Z,5.43
2019-05-26T02:06:30.712Z,5.50
2019-05-26T02:08:59.012Z,5.50
2019-05-26T02:11:27.300Z,5.27
2019-05-26T02:13:55.553Z,5.70
2019-05-26T02:16:23.815Z,5.73
2019-05-26T02:18:52.081Z,5.30
2019-05-26T02:21:20.354Z,5.20
2019-05-26T02:23:48.778Z,5.73
2019-05-26T02:26:19.686Z,5.90
2019-05-26T02:28:48.038Z,6.07
2019-05-26T02:31:16.317Z,5.10
2019-05-26T02:33:44.606Z,6.00
2019-05-26T02:36:12.869Z,5.63
2019-05-26T02:38:59.717Z,5.40
2019-05-26T02:41:11.121Z,5.47
2019-05-26T02:43:39.640Z,5.33
2019-05-26T02:46:07.909Z,5.00
2019-05-26T02:48:36.188Z,5.90
2019-05-26T02:51:04.542Z,5.27
2019-05-26T02:53:32.823Z,5.70
2019-05-26T02:56:01.308Z,5.60
2019-05-26T02:58:30.545Z,4.80
2019-05-26T03:00:58.904Z,5.30
2019-05-26T03:03:27.225Z,4.93
2019-05-26T03:05:56.253Z,5.40
2019-05-26T03:08:25.774Z,5.40
2019-05-26T03:10:54.795Z,5.10
2019-05-26T03:13:23.092Z,5.57
2019-05-26T03:15:52.087Z,5.03
2019-05-26T03:18:20.344Z,5.83
2019-05-26T03:20:48.802Z,5.13
2019-05-26T03:23:17.217Z,4.60
2019-05-26T03:25:46.517Z,5.10
2019-05-26T03:28:14.746Z,4.50
2019-05-26T03:30:43.001Z,5.30
2019-05-26T03:33:11.266Z,5.03
2019-05-26T03:35:39.607Z,5.20
2019-05-26T03:38:07.931Z,5.53
2019-05-26T03:40:36.270Z,5.40
2019-05-26T03:43:04.528Z,5.40
2019-05-26T03:45:45.258Z,6.07
2019-05-26T03:48:13.462Z,5.50
2019-05-26T03:50:41.719Z,5.00
2019-05-26T03:53:09.988Z,5.73
2019-05-26T03:55:38.261Z,5.20
2019-05-26T03:58:06.544Z,5.13
2019-05-26T04:00:34.816Z,5.00
2019-05-26T04:03:05.141Z,5.97
2019-05-26T04:05:33.427Z,5.73
2019-05-26T04:08:04.691Z,5.10
2019-05-26T04:10:31.756Z,5.70
2019-05-26T04:13:00.028Z,5.50
2019-05-26T04:18:02.496Z,5.50
2019-05-26T04:20:30.772Z,5.50
2019-05-26T04:23:00.237Z,5.53
2019-05-26T04:25:28.909Z,5.60
2019-05-26T04:27:58.857Z,5.50
2019-05-26T04:30:28.132Z,5.30
2019-05-26T04:32:56.445Z,5.50
2019-05-26T04:35:24.691Z,5.50
2019-05-26T04:37:52.948Z,5.73
2019-05-26T04:40:27.363Z,5.53
2019-05-26T04:42:51.348Z,5.80
2019-05-26T04:45:19.637Z,5.70
2019-05-26T04:47:47.938Z,5.30
2019-05-26T04:50:17.284Z,5.70
2019-05-26T04:53:04.459Z,5.50
2019-05-26T04:55:16.582Z,5.80
2019-05-26T04:57:44.922Z,6.50
2019-05-26T05:00:13.263Z,5.33
2019-05-26T05:02:46.083Z,6.20
2019-05-26T05:05:14.495Z,5.07
2019-05-26T05:07:42.859Z,5.87
2019-05-26T05:10:11.293Z,5.80
2019-05-26T05:12:39.596Z,6.00
2019-05-26T05:15:09.567Z,6.63
2019-05-26T05:17:37.900Z,7.47
2019-05-26T05:20:07.641Z,6.90
2019-05-26T05:22:37.937Z,7.53
2019-05-26T05:25:14.100Z,7.07
2019-05-26T05:27:37.935Z,7.37
2019-05-26T05:30:08.919Z,7.50
2019-05-26T05:32:37.210Z,7.17
2019-05-26T05:35:07.807Z,9.00
2019-05-26T05:37:36.795Z,8.30
2019-05-26T05:40:09.995Z,8.13
2019-05-26T05:42:38.312Z,8.53
2019-05-26T05:45:08.171Z,8.73
2019-05-26T05:47:36.509Z,10.77
2019-05-26T05:50:09.506Z,10.63
2019-05-26T05:52:37.833Z,11.37
2019-05-26T05:55:07.473Z,10.50
2019-05-26T05:57:35.889Z,10.70
2019-05-26T06:00:06.357Z,11.63
2019-05-26T06:02:36.751Z,13.03
2019-05-26T06:05:06.941Z,11.70
2019-05-26T06:07:35.295Z,11.07
2019-05-26T06:10:06.307Z,12.23
2019-05-26T06:12:34.717Z,12.47
2019-05-26T06:15:04.188Z,11.73
2019-05-26T06:17:32.457Z,11.47
2019-05-26T06:20:00.804Z,11.80
2019-05-26T06:22:29.175Z,11.57
2019-05-26T06:24:57.452Z,10.90
2019-05-26T06:27:25.717Z,9.83
2019-05-26T06:29:58.765Z,9.57
2019-05-26T06:32:24.211Z,9.97
2019-05-26T06:34:52.511Z,10.83
2019-05-26T06:37:20.866Z,11.10
2019-05-26T06:39:49.421Z,10.50
2019-05-26T06:42:18.657Z,10.00
2019-05-26T06:44:53.643Z,11.17
2019-05-26T06:47:18.262Z,9.90
2019-05-26T06:49:46.565Z,10.60
2019-05-26T06:52:14.826Z,10.93
2019-05-26T06:54:44.117Z,11.60
2019-05-26T06:57:12.412Z,11.37
2019-05-26T06:59:40.839Z,11.80
2019-05-26T07:02:09.176Z,11.17
2019-05-26T07:04:38.557Z,11.93
2019-05-26T07:07:06.864Z,11.63
2019-05-26T07:09:37.794Z,10.67
2019-05-26T07:12:06.158Z,10.30
2019-05-26T07:14:34.474Z,10.30
2019-05-26T07:17:02.738Z,10.37
2019-05-26T07:19:31.033Z,10.67
2019-05-26T07:21:59.309Z,11.13
2019-05-26T07:24:29.438Z,9.90
2019-05-26T07:26:58.496Z,10.00
2019-05-26T07:29:26.794Z,11.40
2019-05-26T07:31:55.166Z,10.70
2019-05-26T07:34:23.402Z,11.13
2019-05-26T07:36:51.690Z,12.33
2019-05-26T07:39:20.024Z,11.37
2019-05-26T07:41:48.368Z,11.20
2019-05-26T07:44:16.671Z,11.33
2019-05-26T07:46:44.938Z,12.10
2019-05-26T07:49:13.296Z,12.60
2019-05-26T07:51:41.588Z,14.03
2019-05-26T07:54:24.602Z,11.07
2019-05-26T07:56:41.108Z,12.97
2019-05-26T07:59:09.365Z,13.50
2019-05-26T08:01:37.671Z,13.77
2019-05-26T08:04:06.002Z,13.60
2019-05-26T08:06:34.268Z,12.43
2019-05-26T08:09:02.552Z,13.90
2019-05-26T08:11:30.818Z,14.57
2019-05-26T08:13:59.117Z,13.83
2019-05-26T08:16:32.166Z,14.90
2019-05-26T08:19:08.320Z,15.70
2019-05-26T08:21:46.146Z,13.27
2019-05-26T08:24:14.498Z,12.67
2019-05-26T08:26:45.780Z,12.97
2019-05-26T08:29:14.067Z,12.77
2019-05-26T08:31:43.396Z,13.20
2019-05-26T08:34:11.719Z,13.17
2019-05-26T08:36:40.013Z,11.63
2019-05-26T08:39:09.597Z,12.50
2019-05-26T08:41:37.894Z,11.60
2019-05-26T08:44:06.234Z,12.13
2019-05-26T08:46:34.619Z,12.80
2019-05-26T08:49:02.884Z,11.53
2019-05-26T08:51:31.161Z,12.03
2019-05-26T08:53:59.432Z,12.13
2019-05-26T08:56:29.772Z,12.27
2019-05-26T08:58:58.133Z,12.13
2019-05-26T09:01:26.525Z,10.80
2019-05-26T09:03:54.796Z,10.13
2019-05-26T09:06:23.063Z,10.70
2019-05-26T09:08:52.230Z,11.50
2019-05-26T09:11:21.651Z,10.20
2019-05-26T09:13:49.955Z,12.33
2019-05-26T09:16:18.228Z,11.50
2019-05-26T09:18:46.518Z,11.23
2019-05-26T09:21:14.904Z,10.27
2019-05-26T09:23:43.161Z,10.30
2019-05-26T09:26:11.423Z,11.10
2019-05-26T09:28:39.720Z,10.40
2019-05-26T09:31:07.983Z,10.00
2019-05-26T09:33:37.392Z,10.93
2019-05-26T09:36:05.671Z,10.80
2019-05-26T09:38:37.216Z,9.73
2019-05-26T09:41:05.502Z,9.53
2019-05-26T09:43:33.788Z,10.73
2019-05-26T09:46:02.137Z,8.10
2019-05-26T09:48:30.414Z,8.87
2019-05-26T09:50:58.757Z,10.43
2019-05-26T09:53:27.108Z,9.27
2019-05-26T09:55:55.370Z,8.43
2019-05-26T09:58:23.704Z,9.23
2019-05-26T10:00:52.039Z,9.07
2019-05-26T10:03:20.400Z,9.00
2019-05-26T10:05:48.689Z,9.30
2019-05-26T10:08:17.004Z,8.43
2019-05-26T10:10:45.272Z,8.40
2019-05-26T10:13:13.553Z,10.00
2019-05-26T10:15:41.819Z,8.50
2019-05-26T10:18:10.107Z,9.60
2019-05-26T10:20:38.406Z,8.90
2019-05-26T10:23:06.693Z,9.60
2019-05-26T10:25:34.998Z,10.27
2019-05-26T10:28:03.269Z,9.03
2019-05-26T10:30:31.529Z,7.80
2019-05-26T10:32:59.804Z,6.77
2019-05-26T10:35:29.115Z,5.23
2019-05-26T10:37:57.374Z,5.40
2019-05-26T10:40:25.635Z,4.87
2019-05-26T10:42:53.942Z,5.70
2019-05-26T10:45:23.180Z,5.50
2019-05-26T10:47:51.518Z,6.13
2019-05-26T10:50:19.847Z,6.10
2019-05-26T10:52:48.219Z,4.67
2019-05-26T10:55:16.671Z,4.43
2019-05-26T10:57:44.974Z,6.20
2019-05-26T11:00:13.315Z,5.67
2019-05-26T11:02:41.602Z,6.70
2019-05-26T11:05:18.846Z,6.37
2019-05-26T11:07:42.565Z,5.93
2019-05-26T11:10:10.905Z,4.37
2019-05-26T11:12:39.234Z,4.73
2019-05-26T11:15:08.478Z,4.80
2019-05-26T11:17:36.898Z,4.67
2019-05-26T11:20:10.439Z,4.67
2019-05-26T11:22:39.740Z,4.63
2019-05-26T11:25:08.340Z,4.90
2019-05-26T11:27:36.712Z,4.07
2019-05-26T11:30:09.991Z,5.70
2019-05-26T11:32:38.426Z,4.63
2019-05-26T11:35:07.059Z,4.80
2019-05-26T11:37:37.439Z,5.77
2019-05-26T11:40:07.337Z,4.57
2019-05-26T11:42:36.582Z,3.90
2019-05-26T11:45:07.101Z,3.90
2019-05-26T11:47:35.402Z,3.83
2019-05-26T11:50:08.490Z,3.87
2019-05-26T11:52:36.794Z,2.97
2019-05-26T11:55:08.458Z,3.17
2019-05-26T11:57:37.511Z,3.07
2019-05-26T12:00:07.761Z,3.00
2019-05-26T12:02:36.468Z,3.17
2019-05-26T12:05:10.230Z,3.27
2019-05-26T12:07:43.070Z,3.47
2019-05-26T12:10:14.473Z,3.63
2019-05-26T12:12:42.902Z,2.50
2019-05-26T12:15:12.135Z,3.07
2019-05-26T12:17:40.559Z,2.20
2019-05-26T12:20:09.389Z,2.33
2019-05-26T12:22:37.648Z,2.70
2019-05-26T12:25:07.332Z,2.70
2019-05-26T12:27:35.724Z,2.50
2019-05-26T12:30:06.559Z,2.30
2019-05-26T12:32:34.895Z,2.27
2019-05-26T12:35:04.358Z,2.00
2019-05-26T12:37:32.714Z,1.80
2019-05-26T12:40:00.979Z,1.70
2019-05-26T12:42:29.379Z,1.73
2019-05-26T12:44:57.643Z,1.80
2019-05-26T12:47:25.914Z,1.77
2019-05-26T12:49:54.319Z,1.50
2019-05-26T12:52:22.715Z,2.20
2019-05-26T12:54:50.983Z,1.53
2019-05-26T12:57:19.338Z,1.93
2019-05-26T12:59:47.688Z,2.07
2019-05-26T13:02:15.975Z,1.90
2019-05-26T13:04:44.306Z,1.50
2019-05-26T13:07:12.636Z,2.03
2019-05-26T13:09:41.845Z,2.10
2019-05-26T13:12:10.118Z,2.10
2019-05-26T13:14:38.469Z,2.27
2019-05-26T13:17:06.815Z,2.40
2019-05-26T13:19:35.118Z,2.30
2019-05-26T13:22:03.814Z,1.97
2019-05-26T13:24:32.085Z,2.30
2019-05-26T13:27:01.408Z,2.30
2019-05-26T13:29:29.673Z,2.80
2019-05-26T13:31:57.939Z,2.40
2019-05-26T13:34:26.244Z,2.03
2019-05-26T13:36:54.549Z,2.17
2019-05-26T13:39:22.826Z,2.20
2019-05-26T13:41:52.078Z,2.13
2019-05-26T13:44:20.368Z,2.20
2019-05-26T13:46:48.649Z,2.40
2019-05-26T13:49:16.951Z,2.40
2019-05-26T13:51:45.384Z,2.57
2019-05-26T13:54:14.604Z,2.37
2019-05-26T13:56:42.899Z,1.90
2019-05-26T13:59:11.232Z,2.30
2019-05-26T14:01:41.545Z,3.10
2019-05-26T14:04:09.866Z,2.20
2019-05-26T14:06:38.089Z,2.00
2019-05-26T14:09:08.708Z,4.00
2019-05-26T14:11:37.050Z,2.07
2019-05-26T14:14:05.865Z,2.07
2019-05-26T14:16:37.858Z,1.93
2019-05-26T14:19:08.796Z,1.87
2019-05-26T14:21:37.125Z,1.80
2019-05-26T14:24:05.961Z,2.33
2019-05-26T14:26:34.335Z,2.50
2019-05-26T14:29:02.606Z,2.40
2019-05-26T14:31:31.392Z,2.60
2019-05-26T14:33:59.646Z,1.93
2019-05-26T14:36:27.961Z,2.40
2019-05-26T14:38:56.211Z,2.10
2019-05-26T14:41:24.481Z,1.90
2019-05-26T14:43:52.760Z,2.30
2019-05-26T14:46:21.017Z,2.60
2019-05-26T14:48:49.302Z,2.40
2019-05-26T14:51:17.625Z,2.17
2019-05-26T14:53:45.880Z,2.10
2019-05-26T14:56:16.193Z,2.00
2019-05-26T14:58:44.547Z,1.87
2019-05-26T15:01:12.918Z,1.90
2019-05-26T15:03:41.208Z,1.93
2019-05-26T15:06:09.578Z,1.70
2019-05-26T15:08:37.862Z,1.60
2019-05-26T15:11:07.052Z,1.80
2019-05-26T15:13:39.122Z,1.60
2019-05-26T15:16:10.260Z,1.50
2019-05-26T15:18:38.525Z,1.30
2019-05-26T15:21:06.870Z,1.67
2019-05-26T15:23:35.102Z,1.57
2019-05-26T15:26:05.475Z,1.40
2019-05-26T15:28:33.417Z,1.67
2019-05-26T15:31:01.724Z,1.50
2019-05-26T15:33:34.180Z,1.30
2019-05-26T15:36:03.452Z,1.50
2019-05-26T15:38:42.352Z,1.87
2019-05-26T15:41:09.141Z,2.00
2019-05-26T15:43:43.340Z,1.70
2019-05-26T15:46:24.085Z,1.70
2019-05-26T15:48:41.828Z,1.70
2019-05-26T15:51:12.073Z,2.00
2019-05-26T15:53:40.364Z,1.70
2019-05-26T15:56:08.643Z,1.87
2019-05-26T15:58:37.668Z,1.60
2019-05-26T16:01:06.030Z,1.63
2019-05-26T16:03:34.303Z,1.50
2019-05-26T16:06:02.666Z,2.00
2019-05-26T16:08:30.947Z,1.63
2019-05-26T16:10:59.214Z,1.90
2019-05-26T16:13:27.531Z,2.40
2019-05-26T16:15:56.794Z,1.73
2019-05-26T16:18:25.100Z,2.77
2019-05-26T16:21:03.071Z,1.80
2019-05-26T16:23:32.259Z,1.77
2019-05-26T16:26:00.542Z,2.00
2019-05-26T16:28:28.949Z,2.03
2019-05-26T16:30:57.219Z,2.00
2019-05-26T16:33:25.522Z,1.47
2019-05-26T16:35:55.611Z,2.33
2019-05-26T16:38:23.920Z,2.00
2019-05-26T16:40:52.243Z,2.33
2019-05-26T16:43:20.496Z,3.20
2019-05-26T16:45:56.146Z,2.50
2019-05-26T16:48:18.734Z,2.83
2019-05-26T16:50:47.057Z,2.47
2019-05-26T16:53:15.338Z,1.90
2019-05-26T16:55:44.353Z,2.10
2019-05-26T16:58:12.712Z,3.50
2019-05-26T17:00:41.029Z,3.00
2019-05-26T17:03:09.294Z,2.87
2019-05-26T17:05:37.592Z,1.90
2019-05-26T17:08:05.936Z,2.30
2019-05-26T17:10:34.238Z,1.80
2019-05-26T17:13:02.530Z,2.20
2019-05-26T17:15:30.838Z,2.00
2019-05-26T17:17:59.184Z,2.40
2019-05-26T17:20:27.516Z,2.77
2019-05-26T17:22:56.890Z,2.70
2019-05-26T17:25:25.245Z,2.40
2019-05-26T17:27:53.549Z,2.67
2019-05-26T17:30:22.365Z,2.90
2019-05-26T17:32:50.862Z,2.93
2019-05-26T17:35:19.292Z,4.30
2019-05-26T17:37:47.569Z,3.70
2019-05-26T17:40:15.895Z,2.63
2019-05-26T17:42:44.186Z,2.17
2019-05-26T17:45:13.205Z,2.40
2019-05-26T17:47:44.503Z,2.27
2019-05-26T17:50:12.928Z,2.50
2019-05-26T17:52:41.256Z,2.30
2019-05-26T17:55:10.121Z,2.77
2019-05-26T17:57:40.365Z,2.40
2019-05-26T18:00:17.842Z,2.40
2019-05-26T18:02:46.229Z,2.40
2019-05-26T18:05:14.730Z,2.83
2019-05-26T18:07:43.043Z,2.83
2019-05-26T18:10:11.738Z,3.03
2019-05-26T18:12:40.988Z,3.70
2019-05-26T18:15:10.325Z,3.47
2019-05-26T18:17:46.956Z,3.00
2019-05-26T18:20:08.869Z,3.60
2019-05-26T18:22:39.294Z,3.57
2019-05-26T18:25:08.527Z,2.77
2019-05-26T18:27:36.866Z,3.13
2019-05-26T18:30:10.170Z,2.70
2019-05-26T18:32:40.417Z,3.30
2019-05-26T18:35:08.909Z,4.30
2019-05-26T18:37:37.243Z,4.60
2019-05-26T18:40:06.793Z,3.27
2019-05-26T18:42:35.059Z,3.13
2019-05-26T18:45:04.495Z,3.40
2019-05-26T18:47:34.850Z,4.43
2019-05-26T18:50:03.505Z,6.57
2019-05-26T18:52:33.943Z,5.00
2019-05-26T18:55:03.236Z,3.73
2019-05-26T18:57:31.517Z,3.83
2019-05-26T18:59:59.832Z,4.47
2019-05-26T19:02:28.274Z,4.70
2019-05-26T19:04:58.667Z,3.30
2019-05-26T19:07:27.021Z,3.87
2019-05-26T19:09:55.303Z,5.30
2019-05-26T19:12:23.579Z,5.77
2019-05-26T19:14:58.223Z,4.53
2019-05-26T19:17:29.158Z,3.83
2019-05-26T19:19:57.541Z,2.73
2019-05-26T19:22:25.900Z,4.60
2019-05-26T19:24:54.161Z,5.60
2019-05-26T19:27:22.516Z,5.20
2019-05-26T19:29:52.859Z,3.90
2019-05-26T19:32:21.135Z,3.10
2019-05-26T19:34:49.432Z,3.27
2019-05-26T19:37:17.696Z,2.43
2019-05-26T19:39:46.022Z,2.50
2019-05-26T19:42:14.294Z,2.10
2019-05-26T19:44:43.576Z,3.07
2019-05-26T19:47:11.847Z,4.97
2019-05-26T19:49:40.133Z,3.67
2019-05-26T19:52:08.512Z,3.00
2019-05-26T19:54:36.797Z,3.60
2019-05-26T19:57:05.161Z,3.47
2019-05-26T19:59:47.466Z,3.03
2019-05-26T20:02:18.608Z,2.20
2019-05-26T20:04:45.739Z,1.90
2019-05-26T20:07:14.931Z,2.00
2019-05-26T20:09:43.233Z,2.03
2019-05-26T20:12:11.506Z,2.10
2019-05-26T20:14:39.967Z,1.87
2019-05-26T20:17:08.266Z,1.80
2019-05-26T20:19:36.642Z,2.40
2019-05-26T20:22:05.015Z,2.30
2019-05-26T20:24:34.271Z,1.97
2019-05-26T20:27:02.588Z,2.20
2019-05-26T20:29:30.940Z,2.20
2019-05-26T20:31:59.209Z,2.50
2019-05-26T20:34:27.463Z,2.40
2019-05-26T20:37:05.205Z,2.10
2019-05-26T20:39:33.487Z,1.90
2019-05-26T20:42:01.840Z,2.00
2019-05-26T20:44:33.737Z,1.83
2019-05-26T20:47:03.222Z,2.83
2019-05-26T20:49:44.414Z,2.30
2019-05-26T20:52:02.652Z,2.00
2019-05-26T20:54:32.916Z,2.20
2019-05-26T20:57:01.202Z,2.00
2019-05-26T20:59:29.509Z,1.93
2019-05-26T21:02:01.538Z,1.93
2019-05-26T21:04:31.760Z,2.20
2019-05-26T21:07:00.057Z,2.30
2019-05-26T21:09:28.336Z,2.00
2019-05-26T21:12:03.611Z,1.90
2019-05-26T21:14:32.851Z,2.13
2019-05-26T21:17:02.198Z,2.30
2019-05-26T21:19:32.446Z,2.20
2019-05-26T21:22:00.793Z,2.13
2019-05-26T21:24:29.063Z,2.13
2019-05-26T21:26:57.331Z,2.20
2019-05-26T21:29:25.620Z,2.20
2019-05-26T21:31:53.910Z,2.60
2019-05-26T21:34:22.190Z,2.57
2019-05-26T21:36:50.463Z,2.47
2019-05-26T21:39:26.205Z,2.43
2019-05-26T21:41:54.533Z,2.63
2019-05-26T21:44:22.823Z,2.20
2019-05-26T21:46:57.235Z,2.10
2019-05-26T21:49:25.543Z,2.00
2019-05-26T21:51:54.897Z,2.00
2019-05-26T21:54:23.248Z,2.00
2019-05-26T21:56:57.396Z,2.30
2019-05-26T21:59:25.729Z,2.00
2019-05-26T22:01:54.099Z,2.50
2019-05-26T22:04:22.378Z,2.23
2019-05-26T22:06:50.808Z,2.13
2019-05-26T22:09:20.245Z,2.50
2019-05-26T22:11:48.607Z,2.13
2019-05-26T22:14:18.944Z,2.20
2019-05-26T22:16:48.160Z,2.20
2019-05-26T22:19:16.466Z,2.10
2019-05-26T22:21:44.727Z,2.30
2019-05-26T22:24:14.038Z,2.00
2019-05-26T22:26:42.342Z,2.13
2019-05-26T22:29:13.280Z,2.30
2019-05-26T22:31:51.333Z,2.13
2019-05-26T22:34:19.813Z,2.40
2019-05-26T22:36:50.143Z,2.33
2019-05-26T22:39:18.507Z,2.67
2019-05-26T22:41:46.801Z,2.60
2019-05-26T22:44:15.155Z,2.23
2019-05-26T22:46:43.480Z,2.70
2019-05-26T22:49:12.705Z,2.33
2019-05-26T22:51:40.989Z,2.40
2019-05-26T22:54:11.354Z,2.47
2019-05-26T22:56:39.635Z,2.10
2019-05-26T22:59:08.110Z,2.77
2019-05-26T23:01:37.690Z,2.30
2019-05-26T23:04:10.057Z,2.70
2019-05-26T23:06:44.367Z,2.27
2019-05-26T23:09:15.604Z,2.07
2019-05-26T23:11:43.957Z,2.13
2019-05-26T23:14:12.238Z,2.20
2019-05-26T23:16:40.514Z,2.60
2019-05-26T23:19:18.827Z,2.53
2019-05-26T23:21:38.876Z,2.47
2019-05-26T23:24:13.101Z,2.40
2019-05-26T23:26:41.390Z,2.80
2019-05-26T23:29:09.672Z,2.50
2019-05-26T23:31:38.950Z,2.37
2019-05-26T23:34:07.245Z,2.23
2019-05-26T23:36:35.557Z,2.20
2019-05-26T23:39:05.424Z,2.17
2019-05-26T23:41:33.727Z,2.70
2019-05-26T23:44:02.023Z,2.27
2019-05-26T23:46:30.279Z,2.63
2019-05-26T23:48:58.548Z,2.20
2019-05-26T23:51:26.820Z,2.47
2019-05-26T23:53:55.104Z,2.23
2019-05-26T23:56:23.388Z,2.50
2019-05-26T23:59:00.640Z,2.57
